sensor_id;sensor_type;location;lat;lon;timestamp;temperature;humidity
60309;DHT22;50313;52.894;6.492;2022-08-01T00:01:08;17.90;99.90
60309;DHT22;50313;52.894;6.492;2022-08-01T00:03:34;17.90;99.90
60309;DHT22;50313;52.894;6.492;2022-08-01T00:05:59;17.80;99.90
60309;DHT22;50313;52.894;6.492;2022-08-01T00:08:25;17.80;99.90
60309;DHT22;50313;52.894;6.492;2022-08-01T00:10:51;17.80;99.90
60309;DHT22;50313;52.894;6.492;2022-08-01T00:13:17;17.80;99.90
60309;DHT22;50313;52.894;6.492;2022-08-01T00:15:42;17.70;99.90
60309;DHT22;50313;52.894;6.492;2022-08-01T00:18:08;17.80;99.90
60309;DHT22;50313;52.894;6.492;2022-08-01T00:20:34;17.70;99.90
60309;DHT22;50313;52.894;6.492;2022-08-01T00:23:02;17.80;99.90
60309;DHT22;50313;52.894;6.492;2022-08-01T00:25:28;17.70;99.90
60309;DHT22;50313;52.894;6.492;2022-08-01T00:27:54;17.70;99.90
60309;DHT22;50313;52.894;6.492;2022-08-01T00:30:19;17.70;99.90
60309;DHT22;50313;52.894;6.492;2022-08-01T00:32:45;17.70;99.90
60309;DHT22;50313;52.894;6.492;2022-08-01T00:35:11;17.70;99.90
60309;DHT22;50313;52.894;6.492;2022-08-01T00:37:37;17.60;99.90
60309;DHT22;50313;52.894;6.492;2022-08-01T00:40:03;17.70;99.90
60309;DHT22;50313;52.894;6.492;2022-08-01T00:42:29;17.60;99.90
60309;DHT22;50313;52.894;6.492;2022-08-01T00:44:55;17.70;99.90
60309;DHT22;50313;52.894;6.492;2022-08-01T00:47:21;17.60;99.90
60309;DHT22;50313;52.894;6.492;2022-08-01T00:49:46;17.60;99.90
60309;DHT22;50313;52.894;6.492;2022-08-01T00:52:12;17.60;99.90
60309;DHT22;50313;52.894;6.492;2022-08-01T00:54:38;17.50;99.90
60309;DHT22;50313;52.894;6.492;2022-08-01T00:57:04;17.50;99.90
60309;DHT22;50313;52.894;6.492;2022-08-01T00:59:30;17.50;99.90
60309;DHT22;50313;52.894;6.492;2022-08-01T01:01:56;17.50;99.90
60309;DHT22;50313;52.894;6.492;2022-08-01T01:04:22;17.50;99.90
60309;DHT22;50313;52.894;6.492;2022-08-01T01:10:07;17.50;99.90
60309;DHT22;50313;52.894;6.492;2022-08-01T01:18:04;17.60;99.90
60309;DHT22;50313;52.894;6.492;2022-08-01T01:20:37;17.60;99.90
60309;DHT22;50313;52.894;6.492;2022-08-01T01:31:19;17.50;99.90
60309;DHT22;50313;52.894;6.492;2022-08-01T01:33:46;17.50;99.90
60309;DHT22;50313;52.894;6.492;2022-08-01T01:36:14;17.60;99.90
60309;DHT22;50313;52.894;6.492;2022-08-01T01:38:43;17.50;99.90
60309;DHT22;50313;52.894;6.492;2022-08-01T01:41:15;17.50;99.90
60309;DHT22;50313;52.894;6.492;2022-08-01T01:43:43;17.50;99.90
60309;DHT22;50313;52.894;6.492;2022-08-01T01:46:10;17.50;99.90
60309;DHT22;50313;52.894;6.492;2022-08-01T01:48:38;17.50;99.90
60309;DHT22;50313;52.894;6.492;2022-08-01T01:51:05;17.50;99.90
60309;DHT22;50313;52.894;6.492;2022-08-01T01:53:33;17.40;99.90
60309;DHT22;50313;52.894;6.492;2022-08-01T01:56:02;17.40;99.90
60309;DHT22;50313;52.894;6.492;2022-08-01T01:58:28;17.40;99.90
60309;DHT22;50313;52.894;6.492;2022-08-01T02:00:57;17.40;99.90
60309;DHT22;50313;52.894;6.492;2022-08-01T02:03:25;17.40;99.90
60309;DHT22;50313;52.894;6.492;2022-08-01T02:05:53;17.40;99.90
60309;DHT22;50313;52.894;6.492;2022-08-01T02:08:20;17.40;99.90
60309;DHT22;50313;52.894;6.492;2022-08-01T02:10:48;17.40;99.90
60309;DHT22;50313;52.894;6.492;2022-08-01T02:13:36;17.40;99.90
60309;DHT22;50313;52.894;6.492;2022-08-01T02:16:03;17.40;99.90
60309;DHT22;50313;52.894;6.492;2022-08-01T02:18:31;17.40;99.90
60309;DHT22;50313;52.894;6.492;2022-08-01T02:20:58;17.30;99.90
60309;DHT22;50313;52.894;6.492;2022-08-01T02:23:28;17.40;99.90
60309;DHT22;50313;52.894;6.492;2022-08-01T02:25:58;17.40;99.90
60309;DHT22;50313;52.894;6.492;2022-08-01T02:28:30;17.40;99.90
60309;DHT22;50313;52.894;6.492;2022-08-01T02:31:06;17.40;99.90
60309;DHT22;50313;52.894;6.492;2022-08-01T02:33:39;17.40;99.90
60309;DHT22;50313;52.894;6.492;2022-08-01T02:36:07;17.40;99.90
60309;DHT22;50313;52.894;6.492;2022-08-01T02:38:35;17.40;99.90
60309;DHT22;50313;52.894;6.492;2022-08-01T02:41:08;17.40;99.90
60309;DHT22;50313;52.894;6.492;2022-08-01T02:43:37;17.40;99.90
60309;DHT22;50313;52.894;6.492;2022-08-01T02:46:06;17.40;99.90
60309;DHT22;50313;52.894;6.492;2022-08-01T02:48:35;17.30;99.90
60309;DHT22;50313;52.894;6.492;2022-08-01T02:51:02;17.30;99.90
60309;DHT22;50313;52.894;6.492;2022-08-01T02:53:32;17.20;99.90
60309;DHT22;50313;52.894;6.492;2022-08-01T02:56:03;17.20;99.90
60309;DHT22;50313;52.894;6.492;2022-08-01T02:58:30;17.20;99.90
60309;DHT22;50313;52.894;6.492;2022-08-01T03:00:57;17.20;99.90
60309;DHT22;50313;52.894;6.492;2022-08-01T03:03:24;17.20;99.90
60309;DHT22;50313;52.894;6.492;2022-08-01T03:05:50;17.10;99.90
60309;DHT22;50313;52.894;6.492;2022-08-01T03:08:17;17.10;99.90
60309;DHT22;50313;52.894;6.492;2022-08-01T03:10:45;17.00;99.90
60309;DHT22;50313;52.894;6.492;2022-08-01T03:13:13;17.00;99.90
60309;DHT22;50313;52.894;6.492;2022-08-01T03:15:41;17.00;99.90
60309;DHT22;50313;52.894;6.492;2022-08-01T03:18:09;17.00;99.90
60309;DHT22;50313;52.894;6.492;2022-08-01T03:20:36;17.00;99.90
60309;DHT22;50313;52.894;6.492;2022-08-01T03:23:09;17.00;99.90
60309;DHT22;50313;52.894;6.492;2022-08-01T03:25:39;17.00;99.90
60309;DHT22;50313;52.894;6.492;2022-08-01T03:28:07;17.00;99.90
60309;DHT22;50313;52.894;6.492;2022-08-01T03:30:35;16.90;99.90
60309;DHT22;50313;52.894;6.492;2022-08-01T03:33:02;16.90;99.90
60309;DHT22;50313;52.894;6.492;2022-08-01T03:35:33;16.90;99.90
60309;DHT22;50313;52.894;6.492;2022-08-01T03:38:00;16.90;99.90
60309;DHT22;50313;52.894;6.492;2022-08-01T03:40:38;16.90;99.90
60309;DHT22;50313;52.894;6.492;2022-08-01T03:43:12;16.80;99.90
60309;DHT22;50313;52.894;6.492;2022-08-01T03:45:41;16.80;99.90
60309;DHT22;50313;52.894;6.492;2022-08-01T03:48:16;16.80;99.90
60309;DHT22;50313;52.894;6.492;2022-08-01T03:50:46;16.80;99.90
60309;DHT22;50313;52.894;6.492;2022-08-01T03:53:13;16.80;99.90
60309;DHT22;50313;52.894;6.492;2022-08-01T03:55:41;16.80;99.90
60309;DHT22;50313;52.894;6.492;2022-08-01T03:58:09;16.80;99.90
60309;DHT22;50313;52.894;6.492;2022-08-01T04:00:36;16.80;99.90
60309;DHT22;50313;52.894;6.492;2022-08-01T04:03:06;16.70;99.90
60309;DHT22;50313;52.894;6.492;2022-08-01T04:05:33;16.80;99.90
60309;DHT22;50313;52.894;6.492;2022-08-01T04:07:58;16.80;99.90
60309;DHT22;50313;52.894;6.492;2022-08-01T04:10:27;16.70;99.90
60309;DHT22;50313;52.894;6.492;2022-08-01T04:12:53;16.70;99.90
60309;DHT22;50313;52.894;6.492;2022-08-01T04:15:19;16.70;99.90
60309;DHT22;50313;52.894;6.492;2022-08-01T04:17:46;16.70;99.90
60309;DHT22;50313;52.894;6.492;2022-08-01T04:20:12;16.70;99.90
60309;DHT22;50313;52.894;6.492;2022-08-01T04:22:39;16.70;99.90
60309;DHT22;50313;52.894;6.492;2022-08-01T04:25:26;16.70;99.90
60309;DHT22;50313;52.894;6.492;2022-08-01T04:27:54;16.70;99.90
60309;DHT22;50313;52.894;6.492;2022-08-01T04:30:23;16.70;99.90
60309;DHT22;50313;52.894;6.492;2022-08-01T04:32:53;16.70;99.90
60309;DHT22;50313;52.894;6.492;2022-08-01T04:35:20;16.70;99.90
60309;DHT22;50313;52.894;6.492;2022-08-01T04:37:48;16.70;99.90
60309;DHT22;50313;52.894;6.492;2022-08-01T04:40:14;16.70;99.90
60309;DHT22;50313;52.894;6.492;2022-08-01T04:42:41;16.70;99.90
60309;DHT22;50313;52.894;6.492;2022-08-01T04:45:08;16.70;99.90
60309;DHT22;50313;52.894;6.492;2022-08-01T04:47:36;16.70;99.90
60309;DHT22;50313;52.894;6.492;2022-08-01T04:50:06;16.70;99.90
60309;DHT22;50313;52.894;6.492;2022-08-01T04:52:36;16.60;99.90
60309;DHT22;50313;52.894;6.492;2022-08-01T04:55:03;16.60;99.90
60309;DHT22;50313;52.894;6.492;2022-08-01T04:57:28;16.70;99.90
60309;DHT22;50313;52.894;6.492;2022-08-01T04:59:54;16.60;99.90
60309;DHT22;50313;52.894;6.492;2022-08-01T05:02:22;16.70;99.90
60309;DHT22;50313;52.894;6.492;2022-08-01T05:04:48;16.70;99.90
60309;DHT22;50313;52.894;6.492;2022-08-01T05:07:15;16.60;99.90
60309;DHT22;50313;52.894;6.492;2022-08-01T05:09:41;16.70;99.90
60309;DHT22;50313;52.894;6.492;2022-08-01T05:12:08;16.60;99.90
60309;DHT22;50313;52.894;6.492;2022-08-01T05:14:34;16.60;99.90
60309;DHT22;50313;52.894;6.492;2022-08-01T05:17:02;16.70;99.90
60309;DHT22;50313;52.894;6.492;2022-08-01T05:19:33;16.70;99.90
60309;DHT22;50313;52.894;6.492;2022-08-01T05:22:00;16.70;99.90
60309;DHT22;50313;52.894;6.492;2022-08-01T05:24:33;16.60;99.90
60309;DHT22;50313;52.894;6.492;2022-08-01T05:26:59;16.60;99.90
60309;DHT22;50313;52.894;6.492;2022-08-01T05:29:26;16.60;99.90
60309;DHT22;50313;52.894;6.492;2022-08-01T05:31:52;16.70;99.90
60309;DHT22;50313;52.894;6.492;2022-08-01T05:34:18;16.70;99.90
60309;DHT22;50313;52.894;6.492;2022-08-01T05:36:44;16.70;99.90
60309;DHT22;50313;52.894;6.492;2022-08-01T05:39:10;16.70;99.90
60309;DHT22;50313;52.894;6.492;2022-08-01T05:41:36;16.70;99.90
60309;DHT22;50313;52.894;6.492;2022-08-01T05:44:05;16.70;99.90
60309;DHT22;50313;52.894;6.492;2022-08-01T05:46:31;16.70;99.90
60309;DHT22;50313;52.894;6.492;2022-08-01T05:48:58;16.70;99.90
60309;DHT22;50313;52.894;6.492;2022-08-01T05:51:24;16.70;99.90
60309;DHT22;50313;52.894;6.492;2022-08-01T05:53:49;16.70;99.90
60309;DHT22;50313;52.894;6.492;2022-08-01T05:56:15;16.80;99.90
60309;DHT22;50313;52.894;6.492;2022-08-01T05:58:41;16.70;99.90
60309;DHT22;50313;52.894;6.492;2022-08-01T06:01:07;16.80;99.90
60309;DHT22;50313;52.894;6.492;2022-08-01T06:03:33;16.80;99.90
60309;DHT22;50313;52.894;6.492;2022-08-01T06:06:00;16.80;99.90
60309;DHT22;50313;52.894;6.492;2022-08-01T06:08:26;16.80;99.90
60309;DHT22;50313;52.894;6.492;2022-08-01T06:10:52;16.80;99.90
60309;DHT22;50313;52.894;6.492;2022-08-01T06:13:18;16.80;99.90
60309;DHT22;50313;52.894;6.492;2022-08-01T06:15:45;16.90;99.90
60309;DHT22;50313;52.894;6.492;2022-08-01T06:18:11;16.80;99.90
60309;DHT22;50313;52.894;6.492;2022-08-01T06:20:37;16.80;99.90
60309;DHT22;50313;52.894;6.492;2022-08-01T06:23:03;16.80;99.90
60309;DHT22;50313;52.894;6.492;2022-08-01T06:25:30;16.70;99.90
60309;DHT22;50313;52.894;6.492;2022-08-01T06:27:56;16.70;99.90
60309;DHT22;50313;52.894;6.492;2022-08-01T06:30:22;16.70;99.90
60309;DHT22;50313;52.894;6.492;2022-08-01T06:32:48;16.70;99.90
60309;DHT22;50313;52.894;6.492;2022-08-01T06:35:17;16.70;99.90
60309;DHT22;50313;52.894;6.492;2022-08-01T06:37:43;16.70;99.90
60309;DHT22;50313;52.894;6.492;2022-08-01T06:40:11;16.70;99.90
60309;DHT22;50313;52.894;6.492;2022-08-01T06:42:38;16.70;99.90
60309;DHT22;50313;52.894;6.492;2022-08-01T06:45:09;16.60;99.90
60309;DHT22;50313;52.894;6.492;2022-08-01T06:47:36;16.60;99.90
60309;DHT22;50313;52.894;6.492;2022-08-01T06:50:03;16.70;99.90
60309;DHT22;50313;52.894;6.492;2022-08-01T06:52:29;16.60;99.90
60309;DHT22;50313;52.894;6.492;2022-08-01T06:54:54;16.50;99.90
60309;DHT22;50313;52.894;6.492;2022-08-01T06:57:20;16.60;99.90
60309;DHT22;50313;52.894;6.492;2022-08-01T06:59:46;16.60;99.90
60309;DHT22;50313;52.894;6.492;2022-08-01T07:02:11;16.60;99.90
60309;DHT22;50313;52.894;6.492;2022-08-01T07:04:37;16.60;99.90
60309;DHT22;50313;52.894;6.492;2022-08-01T07:07:03;16.60;99.90
60309;DHT22;50313;52.894;6.492;2022-08-01T07:09:29;16.60;99.90
60309;DHT22;50313;52.894;6.492;2022-08-01T07:11:55;16.70;99.90
60309;DHT22;50313;52.894;6.492;2022-08-01T07:14:22;16.70;99.90
60309;DHT22;50313;52.894;6.492;2022-08-01T07:16:49;16.70;99.90
60309;DHT22;50313;52.894;6.492;2022-08-01T07:19:15;16.70;99.90
60309;DHT22;50313;52.894;6.492;2022-08-01T07:21:41;16.70;99.90
60309;DHT22;50313;52.894;6.492;2022-08-01T07:24:12;16.80;99.90
60309;DHT22;50313;52.894;6.492;2022-08-01T07:26:39;16.80;99.90
60309;DHT22;50313;52.894;6.492;2022-08-01T07:29:05;16.80;99.90
60309;DHT22;50313;52.894;6.492;2022-08-01T07:31:30;16.90;99.90
60309;DHT22;50313;52.894;6.492;2022-08-01T07:33:56;16.90;99.90
60309;DHT22;50313;52.894;6.492;2022-08-01T07:36:22;16.90;99.90
60309;DHT22;50313;52.894;6.492;2022-08-01T07:38:48;17.00;99.90
60309;DHT22;50313;52.894;6.492;2022-08-01T07:41:14;17.10;99.90
60309;DHT22;50313;52.894;6.492;2022-08-01T07:43:40;17.10;99.90
60309;DHT22;50313;52.894;6.492;2022-08-01T07:46:06;17.20;99.90
60309;DHT22;50313;52.894;6.492;2022-08-01T07:48:32;17.30;99.90
60309;DHT22;50313;52.894;6.492;2022-08-01T07:50:58;17.50;99.90
60309;DHT22;50313;52.894;6.492;2022-08-01T07:53:24;17.60;99.90
60309;DHT22;50313;52.894;6.492;2022-08-01T07:55:50;17.70;99.90
60309;DHT22;50313;52.894;6.492;2022-08-01T07:58:16;17.70;99.90
60309;DHT22;50313;52.894;6.492;2022-08-01T08:00:42;17.70;99.90
60309;DHT22;50313;52.894;6.492;2022-08-01T08:03:08;17.70;99.90
60309;DHT22;50313;52.894;6.492;2022-08-01T08:05:34;17.70;99.90
60309;DHT22;50313;52.894;6.492;2022-08-01T08:08:05;17.70;99.90
60309;DHT22;50313;52.894;6.492;2022-08-01T08:10:31;17.80;99.90
60309;DHT22;50313;52.894;6.492;2022-08-01T08:12:57;17.90;99.90
60309;DHT22;50313;52.894;6.492;2022-08-01T08:15:22;17.90;99.90
60309;DHT22;50313;52.894;6.492;2022-08-01T08:17:48;18.00;99.90
60309;DHT22;50313;52.894;6.492;2022-08-01T08:20:14;17.90;99.90
60309;DHT22;50313;52.894;6.492;2022-08-01T08:22:39;18.20;99.90
60309;DHT22;50313;52.894;6.492;2022-08-01T08:25:06;18.20;99.90
60309;DHT22;50313;52.894;6.492;2022-08-01T08:27:32;18.10;99.90
60309;DHT22;50313;52.894;6.492;2022-08-01T08:29:58;18.20;99.90
60309;DHT22;50313;52.894;6.492;2022-08-01T08:32:24;18.20;99.90
60309;DHT22;50313;52.894;6.492;2022-08-01T08:34:50;18.30;99.90
60309;DHT22;50313;52.894;6.492;2022-08-01T08:37:16;18.50;99.90
60309;DHT22;50313;52.894;6.492;2022-08-01T08:39:42;18.70;99.90
60309;DHT22;50313;52.894;6.492;2022-08-01T08:42:10;18.90;99.90
60309;DHT22;50313;52.894;6.492;2022-08-01T08:44:36;19.10;99.90
60309;DHT22;50313;52.894;6.492;2022-08-01T08:47:05;19.30;99.90
60309;DHT22;50313;52.894;6.492;2022-08-01T08:49:32;19.40;99.90
60309;DHT22;50313;52.894;6.492;2022-08-01T08:52:00;19.40;99.90
60309;DHT22;50313;52.894;6.492;2022-08-01T08:54:27;19.50;99.90
60309;DHT22;50313;52.894;6.492;2022-08-01T08:56:54;19.60;99.90
60309;DHT22;50313;52.894;6.492;2022-08-01T08:59:20;19.50;99.90
60309;DHT22;50313;52.894;6.492;2022-08-01T09:01:47;19.70;99.90
60309;DHT22;50313;52.894;6.492;2022-08-01T09:04:13;19.60;99.90
60309;DHT22;50313;52.894;6.492;2022-08-01T09:06:39;19.30;99.90
60309;DHT22;50313;52.894;6.492;2022-08-01T09:09:06;19.30;99.90
60309;DHT22;50313;52.894;6.492;2022-08-01T09:11:32;19.50;99.90
60309;DHT22;50313;52.894;6.492;2022-08-01T09:16:34;19.70;99.90
60309;DHT22;50313;52.894;6.492;2022-08-01T09:19:19;19.90;99.90
60309;DHT22;50313;52.894;6.492;2022-08-01T09:21:59;20.00;99.90
60309;DHT22;50313;52.894;6.492;2022-08-01T09:24:27;19.80;99.90
60309;DHT22;50313;52.894;6.492;2022-08-01T09:26:53;19.80;99.90
60309;DHT22;50313;52.894;6.492;2022-08-01T09:29:25;19.70;99.90
60309;DHT22;50313;52.894;6.492;2022-08-01T09:31:51;19.70;99.90
60309;DHT22;50313;52.894;6.492;2022-08-01T09:34:27;19.70;99.90
60309;DHT22;50313;52.894;6.492;2022-08-01T09:37:01;19.90;99.90
60309;DHT22;50313;52.894;6.492;2022-08-01T09:39:31;20.10;99.90
60309;DHT22;50313;52.894;6.492;2022-08-01T09:42:01;20.00;99.90
60309;DHT22;50313;52.894;6.492;2022-08-01T09:44:41;20.00;99.90
60309;DHT22;50313;52.894;6.492;2022-08-01T09:47:07;19.80;99.90
60309;DHT22;50313;52.894;6.492;2022-08-01T09:49:35;20.10;99.90
60309;DHT22;50313;52.894;6.492;2022-08-01T09:54:42;20.20;99.90
60309;DHT22;50313;52.894;6.492;2022-08-01T09:57:16;20.40;99.90
60309;DHT22;50313;52.894;6.492;2022-08-01T09:59:44;20.20;99.90
60309;DHT22;50313;52.894;6.492;2022-08-01T10:02:26;20.30;99.90
60309;DHT22;50313;52.894;6.492;2022-08-01T10:04:53;20.40;99.90
60309;DHT22;50313;52.894;6.492;2022-08-01T10:07:19;20.30;99.90
60309;DHT22;50313;52.894;6.492;2022-08-01T10:09:45;20.40;99.90
60309;DHT22;50313;52.894;6.492;2022-08-01T10:12:14;20.60;99.90
60309;DHT22;50313;52.894;6.492;2022-08-01T10:14:40;20.60;99.90
60309;DHT22;50313;52.894;6.492;2022-08-01T10:17:09;20.70;99.90
60309;DHT22;50313;52.894;6.492;2022-08-01T10:19:37;20.30;99.90
60309;DHT22;50313;52.894;6.492;2022-08-01T10:22:09;20.20;99.90
60309;DHT22;50313;52.894;6.492;2022-08-01T10:24:37;20.40;99.90
60309;DHT22;50313;52.894;6.492;2022-08-01T10:27:06;20.60;99.90
60309;DHT22;50313;52.894;6.492;2022-08-01T10:29:37;20.60;99.90
60309;DHT22;50313;52.894;6.492;2022-08-01T10:32:06;20.90;99.90
60309;DHT22;50313;52.894;6.492;2022-08-01T10:34:35;21.00;99.90
60309;DHT22;50313;52.894;6.492;2022-08-01T10:37:02;21.10;99.90
60309;DHT22;50313;52.894;6.492;2022-08-01T10:39:28;20.90;99.90
60309;DHT22;50313;52.894;6.492;2022-08-01T10:41:55;20.60;99.90
60309;DHT22;50313;52.894;6.492;2022-08-01T10:44:24;20.30;99.90
60309;DHT22;50313;52.894;6.492;2022-08-01T10:46:54;20.40;99.90
60309;DHT22;50313;52.894;6.492;2022-08-01T10:49:22;20.50;99.90
60309;DHT22;50313;52.894;6.492;2022-08-01T10:51:50;20.40;99.90
60309;DHT22;50313;52.894;6.492;2022-08-01T10:54:15;20.40;99.90
60309;DHT22;50313;52.894;6.492;2022-08-01T10:56:49;20.60;99.90
60309;DHT22;50313;52.894;6.492;2022-08-01T10:59:21;20.60;99.90
60309;DHT22;50313;52.894;6.492;2022-08-01T11:01:59;20.80;99.90
60309;DHT22;50313;52.894;6.492;2022-08-01T11:04:42;21.10;99.90
60309;DHT22;50313;52.894;6.492;2022-08-01T11:07:22;20.90;99.30
60309;DHT22;50313;52.894;6.492;2022-08-01T11:10:09;21.20;98.50
60309;DHT22;50313;52.894;6.492;2022-08-01T11:12:42;21.40;99.90
60309;DHT22;50313;52.894;6.492;2022-08-01T11:17:44;21.00;99.20
60309;DHT22;50313;52.894;6.492;2022-08-01T11:26:06;21.10;99.90
60309;DHT22;50313;52.894;6.492;2022-08-01T11:28:25;21.40;98.20
60309;DHT22;50313;52.894;6.492;2022-08-01T11:41:22;21.20;98.40
60309;DHT22;50313;52.894;6.492;2022-08-01T11:43:57;21.10;98.00
60309;DHT22;50313;52.894;6.492;2022-08-01T11:51:48;21.30;97.60
60309;DHT22;50313;52.894;6.492;2022-08-01T11:54:15;21.50;99.50
60309;DHT22;50313;52.894;6.492;2022-08-01T11:56:41;21.60;96.80
60309;DHT22;50313;52.894;6.492;2022-08-01T11:59:07;21.50;96.40
60309;DHT22;50313;52.894;6.492;2022-08-01T12:01:34;21.60;97.30
60309;DHT22;50313;52.894;6.492;2022-08-01T12:03:59;21.60;97.90
60309;DHT22;50313;52.894;6.492;2022-08-01T12:06:28;21.80;98.30
60309;DHT22;50313;52.894;6.492;2022-08-01T12:08:54;21.70;98.10
60309;DHT22;50313;52.894;6.492;2022-08-01T12:11:20;21.50;97.70
60309;DHT22;50313;52.894;6.492;2022-08-01T12:13:46;21.50;97.90
60309;DHT22;50313;52.894;6.492;2022-08-01T12:16:13;21.40;97.80
60309;DHT22;50313;52.894;6.492;2022-08-01T12:18:43;21.30;97.80
60309;DHT22;50313;52.894;6.492;2022-08-01T12:21:08;21.50;96.60
60309;DHT22;50313;52.894;6.492;2022-08-01T12:23:34;21.70;97.00
60309;DHT22;50313;52.894;6.492;2022-08-01T12:26:00;21.80;96.60
60309;DHT22;50313;52.894;6.492;2022-08-01T12:28:27;22.00;97.10
60309;DHT22;50313;52.894;6.492;2022-08-01T12:30:53;21.70;96.60
60309;DHT22;50313;52.894;6.492;2022-08-01T12:33:20;21.40;96.10
60309;DHT22;50313;52.894;6.492;2022-08-01T12:35:46;21.40;95.90
60309;DHT22;50313;52.894;6.492;2022-08-01T12:38:18;21.50;96.40
60309;DHT22;50313;52.894;6.492;2022-08-01T12:40:46;21.40;95.70
60309;DHT22;50313;52.894;6.492;2022-08-01T12:43:19;21.50;97.50
60309;DHT22;50313;52.894;6.492;2022-08-01T12:45:47;21.50;96.40
60309;DHT22;50313;52.894;6.492;2022-08-01T12:48:16;21.60;95.20
60309;DHT22;50313;52.894;6.492;2022-08-01T12:50:48;21.80;95.10
60309;DHT22;50313;52.894;6.492;2022-08-01T12:53:15;22.20;96.00
60309;DHT22;50313;52.894;6.492;2022-08-01T12:55:49;22.00;95.20
60309;DHT22;50313;52.894;6.492;2022-08-01T12:58:16;21.80;95.40
60309;DHT22;50313;52.894;6.492;2022-08-01T13:00:44;22.00;95.20
60309;DHT22;50313;52.894;6.492;2022-08-01T13:03:14;22.00;95.00
60309;DHT22;50313;52.894;6.492;2022-08-01T13:05:52;22.30;94.40
60309;DHT22;50313;52.894;6.492;2022-08-01T13:08:32;22.70;94.50
60309;DHT22;50313;52.894;6.492;2022-08-01T13:11:11;22.90;93.60
60309;DHT22;50313;52.894;6.492;2022-08-01T13:13:46;23.20;94.50
60309;DHT22;50313;52.894;6.492;2022-08-01T13:16:13;23.40;93.10
60309;DHT22;50313;52.894;6.492;2022-08-01T13:18:39;23.50;92.40
60309;DHT22;50313;52.894;6.492;2022-08-01T13:21:09;23.10;93.10
60309;DHT22;50313;52.894;6.492;2022-08-01T13:23:36;23.30;92.40
60309;DHT22;50313;52.894;6.492;2022-08-01T13:26:02;23.40;92.20
60309;DHT22;50313;52.894;6.492;2022-08-01T13:28:28;23.60;92.30
60309;DHT22;50313;52.894;6.492;2022-08-01T13:31:02;23.60;92.80
60309;DHT22;50313;52.894;6.492;2022-08-01T13:33:45;23.70;92.10
60309;DHT22;50313;52.894;6.492;2022-08-01T13:36:12;23.50;91.90
60309;DHT22;50313;52.894;6.492;2022-08-01T13:38:39;23.60;91.70
60309;DHT22;50313;52.894;6.492;2022-08-01T13:41:23;23.50;92.00
60309;DHT22;50313;52.894;6.492;2022-08-01T13:43:49;23.50;92.20
60309;DHT22;50313;52.894;6.492;2022-08-01T13:46:15;23.40;92.40
60309;DHT22;50313;52.894;6.492;2022-08-01T13:48:41;23.50;91.00
60309;DHT22;50313;52.894;6.492;2022-08-01T13:51:07;23.60;89.80
60309;DHT22;50313;52.894;6.492;2022-08-01T13:53:33;23.50;90.60
60309;DHT22;50313;52.894;6.492;2022-08-01T13:55:58;23.40;90.60
60309;DHT22;50313;52.894;6.492;2022-08-01T13:58:24;23.30;91.10
60309;DHT22;50313;52.894;6.492;2022-08-01T14:00:50;23.50;92.00
60309;DHT22;50313;52.894;6.492;2022-08-01T14:03:16;23.90;92.30
60309;DHT22;50313;52.894;6.492;2022-08-01T14:05:43;23.80;90.70
60309;DHT22;50313;52.894;6.492;2022-08-01T14:08:09;23.60;91.00
60309;DHT22;50313;52.894;6.492;2022-08-01T14:10:35;23.70;90.80
60309;DHT22;50313;52.894;6.492;2022-08-01T14:13:01;23.40;90.40
60309;DHT22;50313;52.894;6.492;2022-08-01T14:15:26;23.80;90.80
60309;DHT22;50313;52.894;6.492;2022-08-01T14:17:52;23.60;89.80
60309;DHT22;50313;52.894;6.492;2022-08-01T14:20:18;23.20;90.50
60309;DHT22;50313;52.894;6.492;2022-08-01T14:22:46;23.20;90.40
60309;DHT22;50313;52.894;6.492;2022-08-01T14:25:11;23.50;90.60
60309;DHT22;50313;52.894;6.492;2022-08-01T14:27:37;23.40;91.00
60309;DHT22;50313;52.894;6.492;2022-08-01T14:30:05;23.40;88.00
60309;DHT22;50313;52.894;6.492;2022-08-01T14:32:31;23.20;89.30
60309;DHT22;50313;52.894;6.492;2022-08-01T14:34:59;23.20;88.70
60309;DHT22;50313;52.894;6.492;2022-08-01T14:37:25;23.30;90.50
60309;DHT22;50313;52.894;6.492;2022-08-01T14:39:51;23.70;91.30
60309;DHT22;50313;52.894;6.492;2022-08-01T14:42:16;23.60;90.40
60309;DHT22;50313;52.894;6.492;2022-08-01T14:44:42;23.70;87.40
60309;DHT22;50313;52.894;6.492;2022-08-01T14:47:07;23.40;90.40
60309;DHT22;50313;52.894;6.492;2022-08-01T14:49:33;23.50;88.90
60309;DHT22;50313;52.894;6.492;2022-08-01T14:51:59;23.10;91.80
60309;DHT22;50313;52.894;6.492;2022-08-01T14:54:25;22.80;90.60
60309;DHT22;50313;52.894;6.492;2022-08-01T14:56:50;22.80;90.20
60309;DHT22;50313;52.894;6.492;2022-08-01T14:59:18;22.90;90.60
60309;DHT22;50313;52.894;6.492;2022-08-01T15:01:44;22.80;90.80
60309;DHT22;50313;52.894;6.492;2022-08-01T15:04:10;22.50;90.20
60309;DHT22;50313;52.894;6.492;2022-08-01T15:06:36;22.50;90.70
60309;DHT22;50313;52.894;6.492;2022-08-01T15:09:02;22.70;92.00
60309;DHT22;50313;52.894;6.492;2022-08-01T15:11:28;22.90;90.50
60309;DHT22;50313;52.894;6.492;2022-08-01T15:13:54;23.20;90.70
60309;DHT22;50313;52.894;6.492;2022-08-01T15:16:38;23.40;88.80
60309;DHT22;50313;52.894;6.492;2022-08-01T15:19:04;23.90;85.20
60309;DHT22;50313;52.894;6.492;2022-08-01T15:21:30;23.90;88.70
60309;DHT22;50313;52.894;6.492;2022-08-01T15:23:55;23.80;86.50
60309;DHT22;50313;52.894;6.492;2022-08-01T15:26:21;24.10;84.50
60309;DHT22;50313;52.894;6.492;2022-08-01T15:28:47;24.40;86.10
60309;DHT22;50313;52.894;6.492;2022-08-01T15:31:13;25.00;84.00
60309;DHT22;50313;52.894;6.492;2022-08-01T15:33:38;25.00;80.40
60309;DHT22;50313;52.894;6.492;2022-08-01T15:36:04;25.00;81.20
60309;DHT22;50313;52.894;6.492;2022-08-01T15:38:30;25.40;82.20
60309;DHT22;50313;52.894;6.492;2022-08-01T15:40:56;25.20;80.00
60309;DHT22;50313;52.894;6.492;2022-08-01T15:43:22;25.00;81.10
60309;DHT22;50313;52.894;6.492;2022-08-01T15:45:48;25.20;81.80
60309;DHT22;50313;52.894;6.492;2022-08-01T15:48:14;25.50;79.20
60309;DHT22;50313;52.894;6.492;2022-08-01T15:50:40;25.50;79.90
60309;DHT22;50313;52.894;6.492;2022-08-01T15:53:06;25.80;78.20
60309;DHT22;50313;52.894;6.492;2022-08-01T15:55:34;25.70;79.10
60309;DHT22;50313;52.894;6.492;2022-08-01T15:58:00;25.70;77.80
60309;DHT22;50313;52.894;6.492;2022-08-01T16:00:26;25.80;76.70
60309;DHT22;50313;52.894;6.492;2022-08-01T16:02:52;26.30;75.70
60309;DHT22;50313;52.894;6.492;2022-08-01T16:05:17;26.10;72.90
60309;DHT22;50313;52.894;6.492;2022-08-01T16:07:43;26.00;75.20
60309;DHT22;50313;52.894;6.492;2022-08-01T16:10:09;25.90;75.60
60309;DHT22;50313;52.894;6.492;2022-08-01T16:12:35;26.00;75.00
60309;DHT22;50313;52.894;6.492;2022-08-01T16:15:00;26.30;75.40
60309;DHT22;50313;52.894;6.492;2022-08-01T16:17:26;26.50;74.30
60309;DHT22;50313;52.894;6.492;2022-08-01T16:19:52;26.20;72.90